createdAt,value
2023-01-19T00:00:58.145Z,-1.18
2023-01-19T00:03:25.997Z,-1.30
2023-01-19T00:05:54.541Z,-1.32
2023-01-19T00:08:22.457Z,-1.22
2023-01-19T00:10:52.123Z,-1.17
2023-01-19T00:13:20.656Z,-1.21
2023-01-19T00:15:50.041Z,-1.20
2023-01-19T00:18:18.411Z,-1.22
2023-01-19T00:20:46.420Z,-1.24
2023-01-19T00:23:15.061Z,-1.19
2023-01-19T00:25:43.861Z,-1.16
2023-01-19T00:28:13.113Z,-1.13
2023-01-19T00:30:41.469Z,-1.36
2023-01-19T00:33:11.497Z,-1.29
2023-01-19T00:35:40.348Z,-1.40
2023-01-19T00:38:08.241Z,-1.35
2023-01-19T00:40:36.131Z,-1.30
2023-01-19T00:43:04.203Z,-1.22
2023-01-19T00:45:32.415Z,-1.19
2023-01-19T00:48:00.254Z,-1.16
2023-01-19T00:50:31.160Z,-1.13
2023-01-19T00:53:01.494Z,-1.14
2023-01-19T00:55:29.942Z,-1.14
2023-01-19T00:57:58.166Z,-1.13
2023-01-19T01:00:26.642Z,-1.11
2023-01-19T01:02:55.827Z,-1.13
2023-01-19T01:05:23.799Z,-1.16
2023-01-19T01:07:53.087Z,-1.17
2023-01-19T01:10:22.669Z,-1.19
2023-01-19T01:12:55.968Z,-1.16
2023-01-19T01:15:27.824Z,-1.19
2023-01-19T01:17:55.921Z,-1.19
2023-01-19T01:20:25.503Z,-1.18
2023-01-19T01:22:55.424Z,-1.21
2023-01-19T01:25:25.006Z,-1.21
2023-01-19T01:27:53.136Z,-1.22
2023-01-19T01:30:21.761Z,-1.25
2023-01-19T01:32:49.801Z,-1.24
2023-01-19T01:35:18.152Z,-1.23
2023-01-19T01:37:46.058Z,-1.24
2023-01-19T01:40:17.862Z,-1.22
2023-01-19T01:42:45.804Z,-1.18
2023-01-19T01:45:30.619Z,-1.22
2023-01-19T01:48:01.599Z,-1.19
2023-01-19T01:50:31.632Z,-1.20
2023-01-19T01:53:07.090Z,-1.24
2023-01-19T01:55:40.416Z,-1.24
2023-01-19T01:58:09.832Z,-1.23
2023-01-19T02:00:52.262Z,-1.21
2023-01-19T02:03:20.282Z,-1.23
2023-01-19T02:05:48.474Z,-1.21
2023-01-19T02:08:37.269Z,-1.25
2023-01-19T02:11:25.089Z,-1.28
2023-01-19T02:13:53.135Z,-1.38
2023-01-19T02:16:21.065Z,-1.45
2023-01-19T02:18:49.504Z,-1.39
2023-01-19T02:21:20.853Z,-1.35
2023-01-19T02:23:52.551Z,-1.33
2023-01-19T02:26:22.587Z,-1.35
2023-01-19T02:28:53.571Z,-1.36
2023-01-19T02:31:21.435Z,-1.35
2023-01-19T02:33:49.227Z,-1.38
2023-01-19T02:36:18.238Z,-1.43
2023-01-19T02:38:47.552Z,-1.43
2023-01-19T02:41:20.801Z,-1.42
2023-01-19T02:43:49.791Z,-1.42
2023-01-19T02:46:17.957Z,-1.43
2023-01-19T02:48:45.748Z,-1.43
2023-01-19T02:51:17.061Z,-1.41
2023-01-19T02:54:04.733Z,-1.40
2023-01-19T02:56:47.271Z,-1.41
2023-01-19T02:59:24.518Z,-1.44
2023-01-19T03:02:09.065Z,-1.44
2023-01-19T03:04:46.130Z,-1.44
2023-01-19T03:07:16.084Z,-1.43
2023-01-19T03:09:51.127Z,-1.40
2023-01-19T03:12:27.567Z,-1.37
2023-01-19T03:14:59.744Z,-1.36
2023-01-19T03:17:29.684Z,-1.38
2023-01-19T03:19:59.066Z,-1.37
2023-01-19T03:22:29.099Z,-1.40
2023-01-19T03:25:01.497Z,-1.45
2023-01-19T03:27:32.613Z,-1.45
2023-01-19T03:30:02.791Z,-1.46
2023-01-19T03:32:35.708Z,-1.45
2023-01-19T03:35:05.647Z,-1.45
2023-01-19T03:37:35.603Z,-1.46
2023-01-19T03:40:03.441Z,-1.48
2023-01-19T03:42:33.244Z,-1.52
2023-01-19T03:45:01.735Z,-1.51
2023-01-19T03:47:29.991Z,-1.52
2023-01-19T03:49:58.472Z,-1.51
2023-01-19T03:52:30.381Z,-1.47
2023-01-19T03:54:58.482Z,-1.50
2023-01-19T03:57:26.692Z,-1.49
2023-01-19T03:59:55.995Z,-1.48
2023-01-19T04:02:24.155Z,-1.53
2023-01-19T04:04:52.348Z,-1.54
2023-01-19T04:07:20.221Z,-1.56
2023-01-19T04:09:48.487Z,-1.57
2023-01-19T04:12:16.466Z,-1.54
2023-01-19T04:14:44.241Z,-1.53
2023-01-19T04:17:14.244Z,-1.56
2023-01-19T04:19:42.427Z,-1.61
2023-01-19T04:22:10.555Z,-1.66
2023-01-19T04:24:38.340Z,-1.65
2023-01-19T04:27:06.258Z,-1.71
2023-01-19T04:29:34.065Z,-1.71
2023-01-19T04:32:01.898Z,-1.75
2023-01-19T04:34:31.172Z,-1.73
2023-01-19T04:36:59.100Z,-1.77
2023-01-19T04:39:27.666Z,-1.83
2023-01-19T04:41:57.488Z,-1.87
2023-01-19T04:44:25.386Z,-1.89
2023-01-19T04:46:53.307Z,-1.94
2023-01-19T04:49:21.163Z,-1.96
2023-01-19T04:51:50.847Z,-1.98
2023-01-19T04:54:18.901Z,-2.05
2023-01-19T04:56:46.825Z,-2.07
2023-01-19T04:59:14.684Z,-2.11
2023-01-19T05:01:42.895Z,-2.13
2023-01-19T05:04:11.030Z,-2.21
2023-01-19T05:06:39.053Z,-2.27
2023-01-19T05:09:09.171Z,-2.34
2023-01-19T05:11:36.977Z,-2.34
2023-01-19T05:14:04.827Z,-2.37
2023-01-19T05:16:33.033Z,-2.45
2023-01-19T05:19:00.974Z,-2.50
2023-01-19T05:21:29.367Z,-2.53
2023-01-19T05:23:57.103Z,-2.55
2023-01-19T05:26:54.774Z,-2.57
2023-01-19T05:29:22.718Z,-2.56
2023-01-19T05:43:14.904Z,-2.51
2023-01-19T05:45:43.514Z,-2.45
2023-01-19T05:48:11.468Z,-2.44
2023-01-19T05:50:39.463Z,-2.48
2023-01-19T05:53:07.648Z,-2.56
2023-01-19T05:55:36.593Z,-2.58
2023-01-19T05:58:04.697Z,-2.64
2023-01-19T06:00:34.033Z,-2.67
2023-01-19T06:03:03.128Z,-2.72
2023-01-19T06:05:31.410Z,-2.75
2023-01-19T06:07:59.525Z,-2.83
2023-01-19T06:10:27.452Z,-2.84
2023-01-19T06:12:55.887Z,-2.90
2023-01-19T06:15:23.960Z,-2.88
2023-01-19T06:17:55.204Z,-2.91
2023-01-19T06:20:23.048Z,-2.92
2023-01-19T06:22:50.989Z,-3.05
2023-01-19T06:25:18.862Z,-3.07
2023-01-19T06:27:46.764Z,-3.12
2023-01-19T06:30:15.516Z,-3.12
2023-01-19T06:32:43.369Z,-3.13
2023-01-19T06:35:12.769Z,-3.15
2023-01-19T06:37:41.178Z,-3.15
2023-01-19T06:40:10.402Z,-3.15
2023-01-19T06:42:38.338Z,-3.16
2023-01-19T06:45:07.148Z,-3.17
2023-01-19T06:47:35.013Z,-3.21
2023-01-19T06:50:03.555Z,-3.24
2023-01-19T06:52:33.197Z,-3.22
2023-01-19T06:55:01.357Z,-3.27
2023-01-19T06:57:29.457Z,-3.31
2023-01-19T07:00:00.871Z,-3.35
2023-01-19T07:02:29.142Z,-3.40
2023-01-19T07:04:57.283Z,-3.40
2023-01-19T07:07:25.427Z,-3.37
2023-01-19T07:09:55.259Z,-3.35
2023-01-19T07:12:24.039Z,-3.33
2023-01-19T07:14:52.859Z,-3.32
2023-01-19T07:17:20.900Z,-3.34
2023-01-19T07:23:36.123Z,-3.34
2023-01-19T07:26:06.144Z,-3.29
2023-01-19T07:28:34.540Z,-3.26
2023-01-19T07:31:02.521Z,-3.25
2023-01-19T07:33:30.661Z,-3.27
2023-01-19T07:35:58.690Z,-3.29
2023-01-19T07:38:26.826Z,-3.26
2023-01-19T07:41:02.079Z,-3.25
2023-01-19T07:43:32.078Z,-3.23
2023-01-19T07:46:00.723Z,-3.19
2023-01-19T07:48:29.344Z,-3.18
2023-01-19T07:51:02.458Z,-3.14
2023-01-19T07:53:30.710Z,-3.13
2023-01-19T07:55:58.670Z,-3.09
2023-01-19T07:58:27.177Z,-3.05
2023-01-19T08:00:56.493Z,-3.03
2023-01-19T08:03:24.860Z,-2.99
2023-01-19T08:05:53.657Z,-2.92
2023-01-19T08:08:22.063Z,-2.84
2023-01-19T08:10:52.149Z,-2.86
2023-01-19T08:13:20.171Z,-2.82
2023-01-19T08:15:51.686Z,-2.81
2023-01-19T08:18:21.483Z,-2.78
2023-01-19T08:20:49.514Z,-2.73
2023-01-19T08:23:18.345Z,-2.70
2023-01-19T08:25:46.441Z,-2.70
2023-01-19T08:28:15.881Z,-2.69
2023-01-19T08:30:45.147Z,-2.65
2023-01-19T08:33:13.977Z,-2.59
2023-01-19T08:35:45.666Z,-2.57
2023-01-19T08:38:13.816Z,-2.51
2023-01-19T08:40:42.929Z,-2.46
2023-01-19T08:43:12.889Z,-2.46
2023-01-19T08:45:49.241Z,-2.43
2023-01-19T08:48:18.469Z,-2.43
2023-01-19T08:50:48.997Z,-2.39
2023-01-19T08:53:18.094Z,-2.40
2023-01-19T08:55:46.784Z,-2.37
2023-01-19T08:58:14.910Z,-2.38
2023-01-19T09:00:43.213Z,-2.35
2023-01-19T09:03:13.532Z,-2.33
2023-01-19T09:05:42.026Z,-2.32
2023-01-19T09:08:14.212Z,-2.27
2023-01-19T09:10:46.473Z,-2.26
2023-01-19T09:13:14.847Z,-2.22
2023-01-19T09:15:43.707Z,-2.21
2023-01-19T09:18:13.878Z,-2.22
2023-01-19T09:21:13.973Z,-2.15
2023-01-19T09:23:43.877Z,-2.07
2023-01-19T09:26:12.094Z,-2.02
2023-01-19T09:28:40.157Z,-1.93
2023-01-19T09:31:08.997Z,-1.84
2023-01-19T09:33:37.315Z,-1.72
2023-01-19T09:36:05.485Z,-1.68
2023-01-19T09:38:34.099Z,-1.60
2023-01-19T09:41:04.653Z,-1.55
2023-01-19T09:43:39.143Z,-1.53
2023-01-19T09:46:12.899Z,-1.50
2023-01-19T09:48:45.933Z,-1.47
2023-01-19T09:51:17.365Z,-1.40
2023-01-19T09:53:57.150Z,-1.33
2023-01-19T09:56:29.602Z,-1.39
2023-01-19T09:58:58.327Z,-1.29
2023-01-19T10:01:40.535Z,-1.23
2023-01-19T10:04:30.799Z,-1.20
2023-01-19T10:07:06.901Z,-1.15
2023-01-19T10:09:40.987Z,-1.13
2023-01-19T10:12:17.920Z,-1.09
2023-01-19T10:14:51.291Z,-1.02
2023-01-19T10:17:25.599Z,-0.96
2023-01-19T10:19:57.876Z,-0.90
2023-01-19T10:22:27.234Z,-0.87
2023-01-19T10:24:57.402Z,-0.82
2023-01-19T10:27:30.099Z,-0.83
2023-01-19T10:29:58.772Z,-0.80
2023-01-19T10:32:30.811Z,-0.81
2023-01-19T10:34:59.616Z,-0.79
2023-01-19T10:37:31.973Z,-0.87
2023-01-19T10:40:03.771Z,-0.81
2023-01-19T10:42:33.547Z,-0.77
2023-01-19T10:45:01.540Z,-0.69
2023-01-19T10:47:33.493Z,-0.53
2023-01-19T10:50:01.992Z,-0.38
2023-01-19T10:52:32.816Z,-0.31
2023-01-19T10:55:02.561Z,-0.23
2023-01-19T10:57:34.555Z,-0.16
2023-01-19T11:00:02.280Z,0.04
2023-01-19T11:02:31.518Z,0.10
2023-01-19T11:05:01.444Z,0.23
2023-01-19T11:07:31.323Z,0.24
2023-01-19T11:10:22.703Z,0.27
2023-01-19T11:13:08.100Z,0.27
2023-01-19T11:15:42.736Z,0.24
2023-01-19T11:18:24.245Z,0.31
2023-01-19T11:20:54.894Z,0.41
2023-01-19T11:23:28.322Z,0.50
2023-01-19T11:26:00.858Z,0.55
2023-01-19T11:28:44.933Z,0.60
2023-01-19T11:31:21.974Z,0.58
2023-01-19T11:33:51.874Z,0.56
2023-01-19T11:36:22.065Z,0.72
2023-01-19T11:38:51.938Z,0.93
2023-01-19T11:41:23.323Z,1.02
2023-01-19T11:44:10.244Z,0.99
2023-01-19T11:47:29.274Z,1.10
2023-01-19T11:50:44.763Z,1.21
2023-01-19T12:01:08.230Z,0.75
2023-01-19T12:03:42.962Z,1.05
2023-01-19T12:06:13.715Z,1.30
2023-01-19T12:09:00.579Z,1.53
2023-01-19T12:12:03.101Z,1.65
2023-01-19T12:15:07.289Z,1.86
2023-01-19T12:21:48.518Z,2.01
2023-01-19T12:25:40.288Z,2.01
2023-01-19T12:28:14.267Z,1.32
2023-01-19T12:30:43.590Z,1.19
2023-01-19T12:33:35.878Z,0.92
2023-01-19T12:36:07.218Z,1.03
2023-01-19T12:38:56.965Z,1.27
2023-01-19T12:41:32.199Z,1.08
2023-01-19T12:44:19.329Z,1.35
2023-01-19T12:46:49.615Z,1.08
2023-01-19T12:49:26.896Z,1.48
2023-01-19T12:51:57.424Z,1.46
2023-01-19T12:54:31.754Z,0.92
2023-01-19T12:57:01.769Z,1.19
2023-01-19T12:59:30.221Z,1.38
2023-01-19T13:02:35.131Z,1.45
2023-01-19T13:05:19.911Z,1.39
2023-01-19T13:08:19.713Z,1.62
2023-01-19T13:11:18.149Z,1.75
2023-01-19T13:13:48.673Z,1.92
2023-01-19T13:16:57.620Z,2.01
2023-01-19T13:19:36.548Z,2.06
2023-01-19T13:22:53.282Z,2.02
2023-01-19T13:25:31.484Z,1.95
2023-01-19T13:28:01.333Z,1.91
2023-01-19T13:30:30.436Z,1.90
2023-01-19T13:33:11.604Z,1.83
2023-01-19T13:35:39.701Z,1.84
2023-01-19T13:38:08.693Z,1.68
2023-01-19T13:40:39.503Z,1.67
2023-01-19T13:43:16.936Z,1.58
2023-01-19T13:45:51.693Z,1.45
2023-01-19T13:48:24.225Z,1.47
2023-01-19T13:51:06.767Z,1.34
2023-01-19T13:53:35.552Z,1.24
2023-01-19T13:56:18.072Z,1.08
2023-01-19T14:03:20.443Z,1.22
2023-01-19T14:05:51.481Z,1.31
2023-01-19T14:08:26.725Z,1.19
2023-01-19T14:11:04.341Z,1.05
2023-01-19T14:20:30.679Z,0.76
2023-01-19T14:22:58.841Z,0.79
2023-01-19T14:25:30.952Z,0.77
2023-01-19T14:28:17.706Z,0.83
2023-01-19T14:30:55.331Z,0.66
2023-01-19T14:33:43.774Z,0.66
2023-01-19T14:36:27.946Z,0.74
2023-01-19T14:38:57.650Z,0.72
2023-01-19T14:41:28.075Z,0.71
2023-01-19T14:43:57.098Z,0.74
2023-01-19T14:46:26.059Z,0.72
2023-01-19T14:49:01.975Z,0.73
2023-01-19T14:51:30.684Z,0.68
2023-01-19T14:54:00.806Z,0.73
2023-01-19T14:56:30.408Z,0.67
2023-01-19T14:58:59.875Z,0.59
2023-01-19T15:01:31.252Z,0.52
2023-01-19T15:04:00.981Z,0.58
2023-01-19T15:06:29.264Z,0.59
2023-01-19T15:08:57.204Z,0.65
2023-01-19T15:11:27.654Z,0.68
2023-01-19T15:13:55.628Z,0.68
2023-01-19T15:16:24.302Z,0.69
2023-01-19T15:18:52.261Z,0.63
2023-01-19T15:21:23.779Z,0.57
2023-01-19T15:23:51.775Z,0.51
2023-01-19T15:26:22.174Z,0.52
2023-01-19T15:28:50.806Z,0.24
2023-01-19T15:31:20.547Z,0.24
2023-01-19T15:33:48.761Z,0.29
2023-01-19T15:36:18.395Z,0.35
2023-01-19T15:38:50.345Z,0.36
2023-01-19T15:41:23.586Z,0.36
2023-01-19T15:43:52.085Z,0.28
2023-01-19T15:46:20.885Z,0.27
2023-01-19T15:48:49.432Z,0.16
2023-01-19T15:51:19.218Z,0.16
2023-01-19T15:53:48.962Z,0.11
2023-01-19T15:56:17.541Z,0.11
2023-01-19T15:58:47.092Z,0.12
2023-01-19T16:01:16.152Z,0.15
2023-01-19T16:03:44.552Z,0.16
2023-01-19T16:06:12.863Z,0.15
2023-01-19T16:08:41.834Z,0.15
2023-01-19T16:11:12.465Z,0.12
2023-01-19T16:13:40.558Z,0.13
2023-01-19T16:16:10.160Z,0.16
2023-01-19T16:18:38.004Z,0.15
2023-01-19T16:21:06.590Z,0.11
2023-01-19T16:23:34.459Z,0.11
2023-01-19T16:26:05.116Z,0.08
2023-01-19T16:28:35.073Z,-0.03
2023-01-19T16:31:03.153Z,-0.02
2023-01-19T16:33:31.162Z,-0.06
2023-01-19T16:35:58.929Z,-0.08
2023-01-19T16:38:27.064Z,-0.07
2023-01-19T16:40:54.856Z,-0.11
2023-01-19T16:43:22.852Z,-0.11
2023-01-19T16:45:59.786Z,-0.10
2023-01-19T16:48:28.525Z,-0.15
2023-01-19T16:51:01.431Z,-0.26
2023-01-19T16:53:30.156Z,-0.26
2023-01-19T16:55:58.713Z,-0.27
2023-01-19T16:58:26.943Z,-0.25
2023-01-19T17:00:55.860Z,-0.21
2023-01-19T17:03:27.145Z,-0.29
2023-01-19T17:05:55.251Z,-0.31
2023-01-19T17:08:23.308Z,-0.28
2023-01-19T17:10:51.162Z,-0.25
2023-01-19T17:13:19.358Z,-0.23
2023-01-19T17:15:47.368Z,-0.23
2023-01-19T17:18:15.282Z,-0.21
2023-01-19T17:20:45.099Z,-0.16
2023-01-19T17:23:13.025Z,-0.12
2023-01-19T17:25:40.909Z,-0.07
2023-01-19T17:28:09.695Z,0.01
2023-01-19T17:30:38.020Z,0.07
2023-01-19T17:41:20.575Z,0.12
2023-01-19T17:44:28.132Z,0.13
2023-01-19T21:06:09.221Z,-1.46
2023-01-19T21:08:37.234Z,-1.52
2023-01-19T21:11:05.493Z,-1.56
2023-01-19T21:13:33.304Z,-1.58
2023-01-19T21:16:00.964Z,-1.57
2023-01-19T21:18:28.627Z,-1.52
2023-01-19T21:20:57.445Z,-1.52
2023-01-19T21:23:26.856Z,-1.55
2023-01-19T21:25:56.082Z,-1.54
2023-01-19T21:28:24.233Z,-1.59
2023-01-19T21:30:52.554Z,-1.65
2023-01-19T21:33:20.701Z,-1.73
2023-01-19T21:35:51.948Z,-1.73
2023-01-19T21:38:19.597Z,-1.74
2023-01-19T21:40:48.652Z,-1.73
2023-01-19T21:43:16.208Z,-1.76
2023-01-19T21:45:44.703Z,-1.77
2023-01-19T21:48:12.285Z,-1.76
2023-01-19T21:50:39.964Z,-1.78
2023-01-19T21:53:11.066Z,-1.81
2023-01-19T21:55:38.870Z,-1.87
2023-01-19T21:58:07.802Z,-1.82
2023-01-19T22:00:35.358Z,-1.78
2023-01-19T22:03:04.522Z,-1.76
2023-01-19T22:05:36.837Z,-1.81
2023-01-19T22:08:05.151Z,-1.83
2023-01-19T22:10:32.822Z,-1.79
2023-01-19T22:13:00.445Z,-1.78
2023-01-19T22:15:30.518Z,-1.81
2023-01-19T22:17:58.139Z,-1.82
2023-01-19T22:20:25.723Z,-1.78
2023-01-19T22:22:53.308Z,-1.79
2023-01-19T22:25:23.831Z,-1.81
2023-01-19T22:27:51.430Z,-1.89
2023-01-19T22:30:19.657Z,-2.05
2023-01-19T22:32:48.668Z,-2.14
2023-01-19T22:35:16.415Z,-2.26
2023-01-19T22:37:43.994Z,-2.39
2023-01-19T22:40:12.888Z,-2.35
2023-01-19T22:42:40.490Z,-2.42
2023-01-19T22:45:09.428Z,-2.34
2023-01-19T22:47:37.000Z,-2.30
2023-01-19T22:50:06.993Z,-2.22
2023-01-19T22:52:34.559Z,-2.17
2023-01-19T22:55:02.183Z,-2.16
2023-01-19T22:57:34.264Z,-2.10
2023-01-19T23:00:01.918Z,-2.06
2023-01-19T23:02:29.476Z,-2.02
2023-01-19T23:04:57.092Z,-2.01
2023-01-19T23:07:26.045Z,-2.07
2023-01-19T23:09:53.634Z,-2.07
2023-01-19T23:12:21.217Z,-2.11
2023-01-19T23:14:48.781Z,-2.09
2023-01-19T23:17:16.379Z,-2.12
2023-01-19T23:19:43.945Z,-2.11
2023-01-19T23:22:11.612Z,-2.09
2023-01-19T23:24:40.795Z,-2.08
2023-01-19T23:27:08.376Z,-2.09
2023-01-19T23:29:36.287Z,-2.06
2023-01-19T23:32:04.009Z,-2.05
2023-01-19T23:34:31.830Z,-2.04
2023-01-19T23:36:59.440Z,-2.03
2023-01-19T23:39:27.023Z,-2.05
2023-01-19T23:41:55.957Z,-2.11
2023-01-19T23:44:23.581Z,-2.13
2023-01-19T23:46:51.351Z,-2.12
2023-01-19T23:49:18.909Z,-2.10
2023-01-19T23:51:46.491Z,-2.12
2023-01-19T23:54:14.115Z,-2.11
2023-01-19T23:56:42.573Z,-2.08
2023-01-19T23:59:12.840Z,-2.06
